Black Horse, Ohio
Current Conditions -  °F | °C
As of 3:15 PM on Sunday 25 Jan 2015 (Local Time) from KPOV Reporting Station
Light Snow Light Snow  
Wind Chill: 17°   Ceiling: 3100
Heat Index: 26°   Visibility: 4mi
Dew Point: 19°   Wind: 10mph
Humidity: 73%   Direction: 50°NE
Pressure: 29.8"   Gusts: NA
Location:  41.1736°N, 81.1686°W
Report Text: KPOV 252015Z AUTO 05009KT 4SM -SN OVC031 M03/M07 A2980 RMK AO2 T10311074
Loading
Personal Weather Stations






























Interactive Weather Map New forecast layout! Learn more

10-Day Weather Forecast

Advertisements
Track Severe Weather on mobile